createdAt,value
2019-03-11T00:02:11.143Z,17.23
2019-03-11T00:04:48.551Z,17.62
2019-03-11T00:07:25.862Z,16.60
2019-03-11T00:10:03.033Z,16.95
2019-03-11T00:12:37.739Z,17.48
2019-03-11T00:15:15.596Z,21.95
2019-03-11T00:17:52.728Z,17.05
2019-03-11T00:20:29.863Z,15.68
2019-03-11T00:23:10.283Z,21.55
2019-03-11T00:25:48.425Z,15.80
2019-03-11T00:28:25.922Z,15.83
2019-03-11T00:31:01.039Z,16.35
2019-03-11T00:33:36.131Z,15.93
2019-03-11T00:36:14.345Z,13.90
2019-03-11T00:38:51.911Z,15.53
2019-03-11T00:41:26.609Z,15.50
2019-03-11T00:44:04.221Z,16.60
2019-03-11T00:46:41.496Z,15.85
2019-03-11T00:49:18.799Z,15.48
2019-03-11T00:51:56.274Z,16.27
2019-03-11T00:54:33.588Z,15.25
2019-03-11T00:57:11.238Z,13.62
2019-03-11T00:59:48.435Z,12.20
2019-03-11T01:02:25.476Z,12.90
2019-03-11T01:05:08.063Z,14.03
2019-03-11T01:07:45.532Z,15.10
2019-03-11T01:10:26.932Z,14.45
2019-03-11T01:13:04.258Z,13.88
2019-03-11T01:15:42.527Z,14.98
2019-03-11T01:18:20.398Z,14.58
2019-03-11T01:20:55.305Z,14.60
2019-03-11T01:23:37.553Z,15.43
2019-03-11T01:26:14.804Z,15.10
2019-03-11T01:28:49.538Z,16.42
2019-03-11T01:31:26.591Z,15.60
2019-03-11T01:34:04.401Z,15.40
2019-03-11T01:36:41.523Z,14.73
2019-03-11T01:39:18.799Z,14.73
2019-03-11T01:41:55.938Z,14.45
2019-03-11T01:44:34.578Z,15.32
2019-03-11T01:47:11.778Z,15.88
2019-03-11T01:49:48.809Z,14.87
2019-03-11T01:52:25.884Z,14.00
2019-03-11T01:55:03.134Z,14.63
2019-03-11T01:57:40.352Z,13.80
2019-03-11T02:00:19.379Z,11.30
2019-03-11T02:02:56.931Z,11.05
2019-03-11T02:05:34.072Z,10.78
2019-03-11T02:08:11.227Z,10.93
2019-03-11T02:10:49.515Z,11.20
2019-03-11T02:13:26.997Z,10.80
2019-03-11T02:16:04.389Z,10.32
2019-03-11T02:18:41.588Z,10.10
2019-03-11T02:21:20.181Z,10.50
2019-03-11T02:23:57.375Z,10.50
2019-03-11T02:26:34.557Z,9.63
2019-03-11T02:29:11.841Z,9.93
2019-03-11T02:31:49.039Z,11.03
2019-03-11T02:34:26.224Z,9.83
2019-03-11T02:37:03.347Z,9.03
2019-03-11T02:39:40.956Z,9.63
2019-03-11T02:42:18.227Z,9.68
2019-03-11T02:44:58.872Z,9.70
2019-03-11T02:47:36.315Z,10.15
2019-03-11T02:50:13.725Z,10.10
2019-03-11T02:52:50.875Z,9.73
2019-03-11T02:55:28.019Z,9.85
2019-03-11T02:58:05.200Z,9.28
2019-03-11T03:00:42.499Z,9.48
2019-03-11T03:03:33.484Z,13.93
2019-03-11T03:06:14.010Z,9.28
2019-03-11T03:08:51.028Z,9.83
2019-03-11T03:11:28.059Z,9.50
2019-03-11T03:14:05.114Z,8.83
2019-03-11T03:16:42.405Z,9.70
2019-03-11T03:19:19.552Z,9.03
2019-03-11T03:21:56.679Z,9.40
2019-03-11T03:24:34.014Z,9.50
2019-03-11T03:27:11.227Z,9.80
2019-03-11T03:29:48.537Z,10.03
2019-03-11T03:32:26.859Z,9.83
2019-03-11T03:35:04.061Z,9.13
2019-03-11T03:37:41.562Z,9.35
2019-03-11T03:40:18.966Z,8.68
2019-03-11T03:42:56.326Z,9.00
2019-03-11T03:45:35.586Z,8.80
2019-03-11T03:48:13.040Z,8.80
2019-03-11T03:50:53.993Z,8.83
2019-03-11T03:53:31.212Z,8.55
2019-03-11T03:56:08.579Z,9.53
2019-03-11T03:58:45.988Z,9.05
2019-03-11T04:01:23.413Z,9.18
2019-03-11T04:04:00.602Z,9.10
2019-03-11T04:06:37.818Z,9.05
2019-03-11T04:09:12.698Z,9.28
2019-03-11T04:11:49.914Z,11.08
2019-03-11T04:14:26.980Z,8.78
2019-03-11T04:17:05.765Z,8.78
2019-03-11T04:19:43.003Z,8.70
2019-03-11T04:22:20.316Z,9.80
2019-03-11T04:24:55.072Z,8.70
2019-03-11T04:27:30.081Z,8.90
2019-03-11T04:30:07.379Z,9.05
2019-03-11T04:32:42.010Z,8.63
2019-03-11T04:35:16.718Z,8.90
2019-03-11T04:37:54.044Z,8.75
2019-03-11T04:40:28.739Z,9.63
2019-03-11T04:43:05.890Z,9.35
2019-03-11T04:45:43.079Z,9.58
2019-03-11T04:48:20.279Z,9.03
2019-03-11T04:50:57.588Z,9.33
2019-03-11T04:53:34.898Z,9.85
2019-03-11T04:56:13.925Z,9.10
2019-03-11T04:58:48.646Z,9.65
2019-03-11T05:01:25.886Z,9.30
2019-03-11T05:04:03.155Z,9.10
2019-03-11T05:06:40.318Z,9.48
2019-03-11T05:09:17.516Z,9.03
2019-03-11T05:11:54.573Z,9.95
2019-03-11T05:14:31.711Z,9.30
2019-03-11T05:17:08.882Z,10.13
2019-03-11T05:19:43.575Z,11.22
2019-03-11T05:22:22.750Z,9.23
2019-03-11T05:25:01.149Z,8.80
2019-03-11T05:27:38.628Z,8.93
2019-03-11T05:30:14.631Z,10.28
2019-03-11T05:32:52.603Z,9.20
2019-03-11T05:35:27.144Z,9.10
2019-03-11T05:38:04.381Z,9.48
2019-03-11T05:40:41.639Z,9.75
2019-03-11T05:43:16.370Z,9.13
2019-03-11T05:45:55.976Z,9.13
2019-03-11T05:48:29.253Z,8.68
2019-03-11T05:51:03.978Z,10.43
2019-03-11T05:53:41.136Z,9.28
2019-03-11T05:56:15.921Z,9.68
2019-03-11T05:58:53.054Z,9.70
2019-03-11T06:01:30.588Z,9.45
2019-03-11T06:04:07.792Z,9.23
2019-03-11T06:06:43.160Z,9.60
2019-03-11T06:09:21.472Z,8.78
2019-03-11T06:11:58.679Z,8.85
2019-03-11T06:14:36.678Z,9.03
2019-03-11T06:17:11.378Z,9.08
2019-03-11T06:19:48.906Z,9.03
2019-03-11T06:22:29.451Z,9.10
2019-03-11T06:25:06.488Z,9.18
2019-03-11T06:27:43.571Z,9.55
2019-03-11T06:30:21.106Z,9.63
2019-03-11T06:32:58.186Z,9.35
2019-03-11T06:35:35.561Z,9.50
2019-03-11T06:38:10.206Z,9.30
2019-03-11T06:40:46.030Z,9.00
2019-03-11T06:43:20.628Z,9.13
2019-03-11T06:45:55.276Z,8.98
2019-03-11T06:48:33.392Z,9.43
2019-03-11T06:51:10.631Z,9.75
2019-03-11T06:53:49.166Z,9.30
2019-03-11T06:56:28.910Z,9.10
2019-03-11T06:59:13.116Z,9.30
2019-03-11T07:01:50.263Z,9.78
2019-03-11T07:04:30.789Z,9.33
2019-03-11T07:07:07.856Z,9.00
2019-03-11T07:09:45.335Z,9.65
2019-03-11T07:12:22.314Z,9.33
2019-03-11T07:14:59.433Z,8.83
2019-03-11T07:17:38.291Z,9.28
2019-03-11T07:20:17.190Z,9.90
2019-03-11T07:22:54.404Z,8.98
2019-03-11T07:25:31.676Z,9.40
2019-03-11T07:28:08.729Z,8.98
2019-03-11T07:30:45.734Z,8.88
2019-03-11T07:33:23.352Z,9.03
2019-03-11T07:36:00.593Z,9.30
2019-03-11T07:38:42.517Z,8.98
2019-03-11T07:41:19.644Z,9.15
2019-03-11T07:43:57.112Z,9.10
2019-03-11T07:46:34.255Z,9.20
2019-03-11T07:49:11.669Z,8.83
2019-03-11T07:51:48.991Z,9.68
2019-03-11T07:54:35.543Z,8.78
2019-03-11T07:57:04.453Z,9.50
2019-03-11T07:59:46.975Z,9.18
2019-03-11T08:02:23.776Z,9.85
2019-03-11T08:04:58.867Z,8.70
2019-03-11T08:07:40.608Z,9.20
2019-03-11T08:10:18.116Z,8.85
2019-03-11T08:12:55.470Z,8.83
2019-03-11T08:15:32.739Z,8.70
2019-03-11T08:18:10.847Z,9.43
2019-03-11T08:20:45.670Z,8.53
2019-03-11T08:23:22.835Z,9.75
2019-03-11T08:26:01.030Z,9.13
2019-03-11T08:28:38.131Z,9.10
2019-03-11T08:31:15.419Z,9.30
2019-03-11T08:33:50.068Z,9.18
2019-03-11T08:36:29.343Z,9.15
2019-03-11T08:39:06.783Z,9.78
2019-03-11T08:41:41.478Z,8.98
2019-03-11T08:44:18.670Z,10.28
2019-03-11T08:46:55.864Z,8.53
2019-03-11T08:49:33.070Z,9.55
2019-03-11T08:52:11.497Z,8.93
2019-03-11T08:54:48.859Z,8.48
2019-03-11T08:57:26.238Z,9.03
2019-03-11T09:00:03.454Z,9.13
2019-03-11T09:02:40.592Z,8.73
2019-03-11T09:05:18.095Z,8.55
2019-03-11T09:07:55.192Z,8.45
2019-03-11T09:10:32.326Z,8.38
2019-03-11T09:13:09.601Z,8.40
2019-03-11T09:15:46.754Z,8.23
2019-03-11T09:18:23.959Z,8.08
2019-03-11T09:21:01.167Z,9.10
2019-03-11T09:23:38.355Z,8.15
2019-03-11T09:26:15.714Z,8.33
2019-03-11T09:28:52.934Z,8.55
2019-03-11T09:31:31.300Z,8.80
2019-03-11T09:34:08.520Z,9.10
2019-03-11T09:36:45.632Z,8.53
2019-03-11T09:39:25.986Z,8.78
2019-03-11T09:42:04.908Z,8.35
2019-03-11T09:44:43.972Z,8.65
2019-03-11T09:47:21.211Z,8.63
2019-03-11T09:49:58.905Z,8.88
2019-03-11T09:52:35.978Z,8.60
2019-03-11T09:55:14.255Z,8.40
2019-03-11T09:57:51.765Z,8.58
2019-03-11T10:00:29.331Z,8.75
2019-03-11T10:03:06.763Z,8.85
2019-03-11T10:05:44.053Z,9.00
2019-03-11T10:08:21.247Z,8.95
2019-03-11T10:10:58.585Z,8.88
2019-03-11T10:13:36.045Z,9.00
2019-03-11T10:16:14.631Z,8.60
2019-03-11T10:18:59.725Z,8.25
2019-03-11T10:21:36.595Z,8.45
2019-03-11T10:24:15.488Z,8.63
2019-03-11T10:26:52.382Z,8.45
2019-03-11T10:29:30.349Z,8.60
2019-03-11T10:32:09.887Z,8.85
2019-03-11T10:34:48.898Z,8.60
2019-03-11T10:37:29.396Z,9.13
2019-03-11T10:40:06.603Z,9.38
2019-03-11T10:42:43.953Z,8.98
2019-03-11T10:45:30.218Z,8.85
2019-03-11T10:47:59.741Z,8.53
2019-03-11T10:50:37.479Z,7.97
2019-03-11T10:53:14.666Z,8.28
2019-03-11T10:55:56.991Z,8.75
2019-03-11T10:58:39.224Z,8.93
2019-03-11T11:01:16.383Z,9.10
2019-03-11T11:03:53.696Z,8.63
2019-03-11T11:06:31.323Z,8.90
2019-03-11T11:09:09.764Z,8.58
2019-03-11T11:11:48.344Z,8.63
2019-03-11T11:14:25.554Z,8.75
2019-03-11T11:17:03.735Z,8.68
2019-03-11T11:19:40.830Z,9.43
2019-03-11T11:22:18.801Z,8.58
2019-03-11T11:24:54.455Z,8.70
2019-03-11T11:27:32.187Z,8.25
2019-03-11T11:30:09.804Z,8.60
2019-03-11T11:32:46.948Z,8.33
2019-03-11T11:35:26.145Z,8.78
2019-03-11T11:38:03.422Z,8.28
2019-03-11T11:40:40.613Z,8.85
2019-03-11T11:43:17.746Z,8.33
2019-03-11T11:45:52.642Z,8.23
2019-03-11T11:48:30.412Z,8.40
2019-03-11T11:51:08.044Z,9.75
2019-03-11T11:53:45.314Z,8.10
2019-03-11T11:56:22.405Z,8.50
2019-03-11T11:58:59.492Z,8.13
2019-03-11T12:01:36.869Z,8.85
2019-03-11T12:04:14.011Z,8.15
2019-03-11T12:06:51.598Z,8.63
2019-03-11T12:09:28.815Z,8.25
2019-03-11T12:12:06.240Z,8.93
2019-03-11T12:14:43.476Z,9.13
2019-03-11T12:17:23.293Z,9.00
2019-03-11T12:19:58.776Z,8.75
2019-03-11T12:22:35.811Z,8.60
2019-03-11T12:25:13.854Z,8.60
2019-03-11T12:27:54.194Z,9.18
2019-03-11T12:30:30.689Z,8.80
2019-03-11T12:33:07.924Z,8.00
2019-03-11T12:35:45.030Z,7.92
2019-03-11T12:38:22.616Z,7.97
2019-03-11T12:41:00.740Z,7.78
2019-03-11T12:43:38.688Z,8.43
2019-03-11T12:46:17.798Z,7.70
2019-03-11T12:48:55.088Z,8.70
2019-03-11T12:51:32.322Z,7.95
2019-03-11T12:54:09.386Z,8.30
2019-03-11T12:56:50.526Z,8.30
2019-03-11T12:59:28.062Z,8.68
2019-03-11T13:02:08.840Z,8.58
2019-03-11T13:04:45.968Z,8.85
2019-03-11T13:07:23.135Z,8.43
2019-03-11T13:10:05.901Z,8.08
2019-03-11T13:12:43.227Z,8.18
2019-03-11T13:15:21.457Z,8.33
2019-03-11T13:17:58.795Z,8.75
2019-03-11T13:20:39.652Z,8.63
2019-03-11T13:23:17.004Z,8.43
2019-03-11T13:25:54.168Z,8.60
2019-03-11T13:31:42.913Z,8.95
2019-03-11T13:34:20.678Z,8.60
2019-03-11T13:36:57.866Z,8.70
2019-03-11T13:39:34.950Z,8.28
2019-03-11T13:42:12.149Z,8.28
2019-03-11T13:44:49.219Z,9.10
2019-03-11T13:47:26.419Z,8.40
2019-03-11T13:50:03.649Z,9.00
2019-03-11T13:52:40.902Z,8.40
2019-03-11T13:55:18.562Z,8.70
2019-03-11T13:57:56.062Z,8.28
2019-03-11T14:00:33.134Z,8.60
2019-03-11T14:03:10.349Z,8.78
2019-03-11T14:05:47.506Z,8.83
2019-03-11T14:08:24.823Z,8.40
2019-03-11T14:11:01.868Z,8.78
2019-03-11T14:13:39.010Z,8.45
2019-03-11T14:16:16.065Z,8.83
2019-03-11T14:18:53.123Z,8.88
2019-03-11T14:21:30.130Z,8.70
2019-03-11T14:24:07.238Z,8.35
2019-03-11T14:29:38.704Z,8.43
2019-03-11T14:32:18.071Z,8.65
2019-03-11T14:34:55.259Z,8.40
2019-03-11T14:37:32.687Z,8.03
2019-03-11T14:40:10.045Z,8.08
2019-03-11T14:42:47.202Z,8.75
2019-03-11T14:45:24.617Z,9.40
2019-03-11T14:48:03.009Z,8.43
2019-03-11T14:50:40.602Z,8.28
2019-03-11T14:53:17.765Z,8.40
2019-03-11T14:55:56.410Z,8.40
2019-03-11T14:58:33.583Z,8.80
2019-03-11T15:01:10.781Z,8.25
2019-03-11T15:03:48.301Z,8.73
2019-03-11T15:06:25.483Z,8.98
2019-03-11T15:09:02.714Z,8.65
2019-03-11T15:11:39.800Z,7.90
2019-03-11T15:14:16.927Z,8.73
2019-03-11T15:16:54.204Z,7.62
2019-03-11T15:19:31.363Z,8.55
2019-03-11T15:22:08.515Z,8.40
2019-03-11T15:24:45.745Z,8.73
2019-03-11T15:27:22.846Z,8.10
2019-03-11T15:29:59.917Z,8.13
2019-03-11T15:32:37.017Z,8.73
2019-03-11T15:35:16.745Z,8.23
2019-03-11T15:40:57.311Z,9.10
2019-03-11T15:43:35.449Z,8.40
2019-03-11T15:46:12.582Z,8.10
2019-03-11T15:48:50.010Z,8.10
2019-03-11T15:51:36.213Z,8.45
2019-03-11T15:54:05.440Z,8.85
2019-03-11T15:56:42.830Z,8.18
2019-03-11T15:59:20.199Z,8.40
2019-03-11T16:01:57.330Z,8.40
2019-03-11T16:04:34.443Z,8.73
2019-03-11T16:07:11.710Z,8.08
2019-03-11T16:09:50.171Z,8.83
2019-03-11T16:12:27.307Z,8.80
2019-03-11T16:15:04.410Z,8.33
2019-03-11T16:17:41.538Z,8.70
2019-03-11T16:20:19.156Z,8.55
2019-03-11T16:22:56.334Z,8.43
2019-03-11T16:25:33.382Z,8.73
2019-03-11T16:28:16.902Z,9.15
2019-03-11T16:31:07.363Z,8.63
2019-03-11T16:33:44.036Z,8.40
2019-03-11T16:36:21.224Z,8.43
2019-03-11T16:38:58.287Z,8.80
2019-03-11T16:41:35.325Z,8.88
2019-03-11T16:44:12.441Z,8.55
2019-03-11T16:46:49.887Z,9.00
2019-03-11T16:49:27.555Z,8.85
2019-03-11T16:52:04.925Z,8.55
2019-03-11T16:54:42.108Z,10.50
2019-03-11T16:57:19.301Z,9.80
2019-03-11T16:59:56.446Z,10.48
2019-03-11T17:02:33.632Z,9.08
2019-03-11T17:05:11.034Z,9.23
2019-03-11T17:07:48.143Z,9.88
2019-03-11T17:10:26.209Z,8.75
2019-03-11T17:13:03.268Z,9.10
2019-03-11T17:15:40.449Z,9.00
2019-03-11T17:18:17.548Z,8.95
2019-03-11T17:20:55.063Z,8.43
2019-03-11T17:23:32.254Z,9.03
2019-03-11T17:26:09.574Z,9.68
2019-03-11T17:28:47.413Z,9.33
2019-03-11T17:31:24.859Z,8.45
2019-03-11T17:34:02.035Z,8.83
2019-03-11T17:36:39.406Z,8.90
2019-03-11T17:39:17.292Z,9.13
2019-03-11T17:41:54.663Z,8.80
2019-03-11T17:44:31.908Z,9.08
2019-03-11T17:47:09.064Z,9.38
2019-03-11T17:49:46.505Z,8.93
2019-03-11T17:52:23.888Z,9.05
2019-03-11T17:55:01.013Z,8.88
2019-03-11T17:57:38.480Z,9.70
2019-03-11T18:06:30.047Z,8.50
2019-03-11T18:09:09.802Z,9.10
2019-03-11T18:11:47.070Z,9.15
2019-03-11T18:14:24.770Z,9.03
2019-03-11T18:17:01.951Z,9.63
2019-03-11T18:19:39.111Z,10.20
2019-03-11T18:22:17.128Z,9.28
2019-03-11T18:24:54.187Z,9.33
2019-03-11T18:27:31.258Z,9.30
2019-03-11T18:30:08.620Z,11.75
2019-03-11T18:32:45.735Z,9.98
2019-03-11T18:35:23.007Z,9.35
2019-03-11T18:38:04.583Z,9.08
2019-03-11T18:40:38.465Z,10.28
2019-03-11T18:43:20.697Z,10.03
2019-03-11T18:45:54.439Z,9.90
2019-03-11T18:48:31.643Z,10.10
2019-03-11T18:51:11.171Z,10.30
2019-03-11T18:53:47.217Z,10.75
2019-03-11T18:56:24.261Z,9.83
2019-03-11T18:59:01.440Z,10.48
2019-03-11T19:01:38.647Z,10.18
2019-03-11T19:04:15.813Z,9.43
2019-03-11T19:06:52.932Z,10.72
2019-03-11T19:09:30.126Z,9.35
2019-03-11T19:12:08.234Z,10.85
2019-03-11T19:14:45.413Z,10.13
2019-03-11T19:17:22.666Z,9.55
2019-03-11T19:20:00.050Z,9.50
2019-03-11T19:22:37.206Z,9.33
2019-03-11T19:25:14.679Z,14.35
2019-03-11T19:27:51.755Z,13.15
2019-03-11T19:30:28.919Z,11.55
2019-03-11T19:33:06.097Z,10.30
2019-03-11T19:35:43.245Z,9.93
2019-03-11T19:38:20.325Z,10.93
2019-03-11T19:40:57.519Z,10.85
2019-03-11T19:43:34.629Z,10.53
2019-03-11T19:46:11.932Z,10.45
2019-03-11T19:48:48.977Z,10.40
2019-03-11T19:51:26.314Z,11.15
2019-03-11T19:54:03.802Z,10.28
2019-03-11T19:56:40.885Z,10.95
2019-03-11T19:59:17.948Z,10.58
2019-03-11T20:01:55.083Z,10.98
2019-03-11T20:04:32.186Z,10.35
2019-03-11T20:07:09.398Z,10.78
2019-03-11T20:09:46.683Z,11.57
2019-03-11T20:12:23.876Z,11.35
2019-03-11T20:15:00.968Z,10.72
2019-03-11T20:17:38.069Z,10.35
2019-03-11T20:20:16.294Z,11.38
2019-03-11T20:22:55.162Z,11.28
2019-03-11T20:25:33.713Z,11.33
2019-03-11T20:28:11.657Z,10.93
2019-03-11T20:30:48.959Z,11.33
2019-03-11T20:33:26.118Z,11.22
2019-03-11T20:36:03.281Z,11.95
2019-03-11T20:38:42.738Z,10.80
2019-03-11T20:41:19.033Z,11.63
2019-03-11T20:43:56.208Z,11.10
2019-03-11T20:46:33.317Z,11.85
2019-03-11T20:49:08.301Z,11.63
2019-03-11T20:51:43.023Z,11.93
2019-03-11T20:54:19.415Z,11.60
2019-03-11T20:56:56.592Z,12.93
2019-03-11T20:59:33.782Z,11.53
2019-03-11T21:02:08.525Z,12.65
2019-03-11T21:04:45.928Z,13.00
2019-03-11T21:07:25.552Z,14.50
2019-03-11T21:10:02.700Z,14.33
2019-03-11T21:12:41.088Z,14.50
2019-03-11T21:15:19.085Z,14.70
2019-03-11T21:17:56.312Z,14.23
2019-03-11T21:20:31.206Z,14.05
2019-03-11T21:23:06.099Z,13.30
2019-03-11T21:25:44.008Z,15.23
2019-03-11T21:28:21.633Z,16.32
2019-03-11T21:30:58.860Z,16.85
2019-03-11T21:33:36.051Z,16.55
2019-03-11T21:36:10.944Z,17.12
2019-03-11T21:38:48.100Z,16.37
2019-03-11T21:41:26.424Z,16.15
2019-03-11T21:44:03.725Z,17.57
2019-03-11T21:46:40.869Z,17.17
2019-03-11T21:49:15.462Z,16.75
2019-03-11T21:51:52.534Z,16.32
2019-03-11T21:54:27.129Z,16.40
2019-03-11T21:57:04.374Z,15.80
2019-03-11T21:59:41.564Z,17.42
2019-03-11T22:02:19.743Z,16.80
2019-03-11T22:04:54.420Z,18.48
2019-03-11T22:07:31.498Z,17.92
2019-03-11T22:10:06.103Z,18.15
2019-03-11T22:12:43.323Z,18.80
2019-03-11T22:15:20.881Z,18.95
2019-03-11T22:17:58.322Z,18.87
2019-03-11T22:20:36.483Z,19.15
2019-03-11T22:23:13.695Z,18.65
2019-03-11T22:25:50.792Z,18.23
2019-03-11T22:28:30.486Z,17.82
2019-03-11T22:31:07.868Z,18.37
2019-03-11T22:33:44.897Z,18.62
2019-03-11T22:36:21.995Z,17.27
2019-03-11T22:38:59.172Z,17.70
2019-03-11T22:41:33.874Z,17.87
2019-03-11T22:44:08.500Z,18.55
2019-03-11T22:46:45.509Z,17.65
2019-03-11T22:49:20.239Z,17.55
2019-03-11T22:51:54.956Z,17.62
2019-03-11T22:54:29.474Z,17.82
2019-03-11T22:57:04.106Z,16.80
2019-03-11T22:59:41.188Z,17.95
2019-03-11T23:02:19.341Z,17.12
2019-03-11T23:04:56.419Z,17.52
2019-03-11T23:07:33.565Z,16.52
2019-03-11T23:10:09.770Z,15.98
2019-03-11T23:12:47.017Z,16.52
2019-03-11T23:15:24.194Z,14.65
2019-03-11T23:18:01.363Z,15.32
2019-03-11T23:20:36.053Z,14.95
2019-03-11T23:23:13.210Z,14.70
2019-03-11T23:25:50.370Z,15.75
2019-03-11T23:28:24.986Z,14.87
2019-03-11T23:31:02.076Z,13.93
2019-03-11T23:33:39.238Z,14.50
2019-03-11T23:36:16.425Z,12.63
2019-03-11T23:38:53.561Z,11.00
2019-03-11T23:41:30.754Z,12.23
2019-03-11T23:44:07.958Z,10.93
2019-03-11T23:46:45.131Z,9.65
2019-03-11T23:49:22.244Z,10.58
2019-03-11T23:51:59.323Z,11.20
2019-03-11T23:54:36.439Z,11.25
2019-03-11T23:57:13.504Z,10.82
2019-03-11T23:59:50.603Z,10.82
